Khewra Weather



Khewra's Current Weather

Temprature 28.35o clear sky

clear sky

Rain: 0 %

Min Temprature28.35o
Max Temprature28.35o
Humidity63
Wind Speed2.54 m/h
Sun Rise05:36:38
Sun Set18:45:16
Current Time: 23-Aug-2019 05:29:15
Lat/Lon: 32.65, 73.01




Khewra's Geo Location



Khewra's Weather Forecast

Time Overall Temp Min Temp Max Temp Humidity Wind Speed Rain
23-Aug-2019 (Fri)
08:00:00 clear sky 31.480 31.477 31.480 55 3.32 m/h 0 %
11:00:00 clear sky 36.650 36.650 36.650 35 2.27 m/h 0 %
14:00:00 clear sky 39.630 39.630 39.631 27 1.05 m/h 0 %
17:00:00 clear sky 39.610 39.610 39.611 23 2.1 m/h 0 %
20:00:00 clear sky 35.450 35.450 35.450 32 1.58 m/h 0 %
23:00:00 clear sky 32.942 32.942 32.942 38 3.68 m/h 0 %
24-Aug-2019 (Sat)
02:00:00 clear sky 30.931 30.931 30.931 45 1.98 m/h 0 %
05:00:00 clear sky 29.355 29.355 29.355 51 3.6 m/h 0 %
08:00:00 clear sky 32.197 32.197 32.197 46 3.94 m/h 0 %
11:00:00 clear sky 38.169 38.169 38.169 30 3.51 m/h 0 %
14:00:00 clear sky 41.469 41.469 41.469 22 2.03 m/h 0 %
17:00:00 clear sky 40.723 40.723 40.723 21 3.07 m/h 0 %
20:00:00 clear sky 35.950 35.950 35.950 28 0.43 m/h 0 %
23:00:00 clear sky 33.369 33.369 33.369 38 4.24 m/h 0 %
25-Aug-2019 (Sun)
02:00:00 clear sky 31.131 31.131 31.131 47 3.12 m/h 0 %
05:00:00 clear sky 29.657 29.657 29.657 54 4.73 m/h 0 %
08:00:00 clear sky 31.614 31.614 31.614 53 5.76 m/h 0 %
11:00:00 clear sky 38.116 38.116 38.116 33 4.77 m/h 0 %
14:00:00 clear sky 41.350 41.350 41.350 23 2.69 m/h 0 %
17:00:00 clear sky 41.450 41.450 41.450 21 3.82 m/h 0 %
20:00:00 clear sky 35.081 35.081 35.081 37 4.85 m/h 0 %
23:00:00 clear sky 32.611 32.611 32.611 50 3.76 m/h 0 %
26-Aug-2019 (Mon)
02:00:00 clear sky 30.965 30.965 30.965 58 3.59 m/h 0 %
05:00:00 clear sky 29.250 29.250 29.250 68 5.35 m/h 0 %
08:00:00 clear sky 29.967 29.967 29.967 65 6.46 m/h 0 %
11:00:00 clear sky 36.572 36.572 36.572 41 5.4 m/h 0 %
14:00:00 clear sky 40.184 40.184 40.184 30 4.78 m/h 0 %
17:00:00 clear sky 39.620 39.620 39.620 29 4.06 m/h 0 %
20:00:00 clear sky 34.472 34.472 34.472 41 4.85 m/h 0 %
23:00:00 few clouds 32.014 32.014 32.014 49 2.81 m/h 0 %
27-Aug-2019 (Tue)
02:00:00 overcast clouds 30.716 30.716 30.716 54 1.99 m/h 0 %
05:00:00 broken clouds 30.050 30.050 30.050 57 2.15 m/h 0 %
08:00:00 broken clouds 32.935 32.935 32.935 51 2.61 m/h 0 %
11:00:00 broken clouds 37.836 37.836 37.836 37 2.09 m/h 0 %
14:00:00 few clouds 40.536 40.536 40.536 29 1.41 m/h 0 %
17:00:00 light rain 35.065 35.065 35.065 42 5.33 m/h 50 %
20:00:00 light rain 35.950 35.950 35.950 37 1.75 m/h 25 %
23:00:00 broken clouds 32.650 32.650 32.650 47 3.69 m/h 0 %
28-Aug-2019 (Wed)
02:00:00 scattered clouds 31.357 31.357 31.357 54 2.85 m/h 0 %
05:00:00 few clouds 30.172 30.172 30.172 60 2.33 m/h 0 %

Famous Cities (61)